Time;durP1;ratioP1;P1;durP2;ratioP2;P2;SDS_P1;SDS_P2;PMS_P1;PMS_P2;Temp;Humidity;BMP_temperature;BMP_pressure;BME280_temperature;BME280_humidity;BME280_pressure;Samples;Min_cycle;Max_cycle;Signal;HPM_P1;HPM_P2
2023/10/16 00:00:47;;;;;;;;;2.50;2.00;;;;;11.40;41.56;101841.22;5038185;28;45376;-81
2023/10/16 00:03:17;;;;;;;;;3.75;2.00;;;;;11.32;41.89;101845.47;5022075;28;45989;-79
2023/10/16 00:05:49;;;;;;;;;2.00;2.00;;;;;11.27;42.20;101844.53;5024007;28;45441;-79
2023/10/16 00:08:16;;;;;;;;;5.50;1.00;;;;;11.08;41.96;101818.81;5019862;28;46297;-80
2023/10/16 00:10:55;;;;;;;;;3.50;2.00;;;;;11.23;42.46;101840.97;5030176;28;45516;-80
2023/10/16 00:13:26;;;;;;;;;3.00;3.00;;;;;11.02;42.60;101830.09;5027502;28;45431;-80
2023/10/16 00:16:03;;;;;;;;;2.00;2.00;;;;;11.16;42.13;101846.94;5026126;28;45489;-80
2023/10/16 00:18:35;;;;;;;;;3.50;2.25;;;;;11.02;42.35;101804.75;5026846;28;45532;-79
2023/10/16 00:21:06;;;;;;;;;2.00;2.00;;;;;10.99;42.78;101819.56;5055399;28;45562;-79
2023/10/16 00:23:40;;;;;;;;;5.25;2.00;;;;;10.78;43.17;101794.72;5038095;28;45425;-79
2023/10/16 00:26:21;;;;;;;;;2.00;1.25;;;;;11.06;42.92;101831.03;5019727;28;45288;-80
2023/10/16 00:28:46;;;;;;;;;1.25;1.00;;;;;10.99;43.17;101816.94;5019693;28;45441;-77
2023/10/16 00:31:32;;;;;;;;;2.00;2.00;;;;;11.13;43.27;101833.81;5024184;28;45444;-75
2023/10/16 00:33:59;;;;;;;;;2.00;1.00;;;;;11.21;42.67;101826.06;5034068;28;45437;-79
2023/10/16 00:36:24;;;;;;;;;1.00;0.25;;;;;11.29;43.41;101837.53;5029900;28;45263;-77
2023/10/16 00:39:26;;;;;;;;;6.00;2.50;;;;;11.19;43.75;101830.38;5042551;28;45280;-76
2023/10/16 00:41:57;;;;;;;;;2.00;1.00;;;;;11.09;44.01;101811.00;5053402;28;45524;-74
2023/10/16 00:44:36;;;;;;;;;1.00;1.00;;;;;11.09;44.00;101812.75;5018050;28;46157;-80
2023/10/16 00:47:07;;;;;;;;;2.00;2.00;;;;;11.13;44.24;101817.16;5024162;28;45482;-80
2023/10/16 00:49:50;;;;;;;;;2.25;2.25;;;;;10.96;44.13;101781.09;5039806;28;45352;-81
2023/10/16 00:52:18;;;;;;;;;4.25;2.75;;;;;11.14;44.10;101811.94;5028801;28;45316;-79
2023/10/16 00:54:49;;;;;;;;;3.00;2.00;;;;;11.16;43.96;101814.63;5024822;28;45496;-80
2023/10/16 00:57:27;;;;;;;;;2.50;2.00;;;;;11.04;44.38;101810.03;5038272;28;46281;-77
2023/10/16 01:00:14;;;;;;;;;3.00;1.00;;;;;11.04;44.86;101817.91;5022433;28;45315;-78
2023/10/16 01:02:47;;;;;;;;;1.00;1.00;;;;;10.99;44.78;101803.84;5032468;28;45629;-73
2023/10/16 01:05:23;;;;;;;;;3.00;2.00;;;;;11.06;44.69;101810.03;5026633;28;45571;-73
2023/10/16 01:07:50;;;;;;;;;4.50;2.25;;;;;10.82;45.39;101780.84;5025680;28;45501;-69
2023/10/16 01:10:17;;;;;;;;;2.00;1.25;;;;;10.81;44.91;101791.28;5015667;28;45489;-69
2023/10/16 01:12:54;;;;;;;;;3.25;3.00;;;;;10.67;45.83;101771.81;5016873;28;45650;-71
2023/10/16 01:15:22;;;;;;;;;4.75;2.00;;;;;10.76;45.39;101792.94;5016804;28;46047;-73
2023/10/16 01:17:51;;;;;;;;;2.00;2.00;;;;;10.75;46.37;101796.44;5016709;28;45552;-70
2023/10/16 01:20:20;;;;;;;;;2.00;2.00;;;;;10.56;46.45;101764.66;5016668;28;45348;-75
2023/10/16 01:22:48;;;;;;;;;6.00;2.75;;;;;10.50;46.67;101767.13;5024186;28;45330;-72
2023/10/16 01:25:15;;;;;;;;;3.00;2.75;;;;;10.66;46.89;101794.50;5021758;28;46134;-75
2023/10/16 01:27:42;;;;;;;;;3.00;3.00;;;;;10.58;46.86;101789.13;5020264;28;45489;-80
2023/10/16 01:30:09;;;;;;;;;2.75;2.00;;;;;10.59;46.88;101785.66;5044670;28;45288;-71
2023/10/16 01:32:39;;;;;;;;;4.25;2.00;;;;;10.25;47.80;101757.91;5036773;28;45359;-79
2023/10/16 01:35:08;;;;;;;;;4.50;2.25;;;;;10.45;47.72;101784.50;5021475;28;46307;-78
2023/10/16 01:37:39;;;;;;;;;2.25;2.25;;;;;10.40;48.08;101784.41;5018448;28;45539;-76
2023/10/16 01:40:21;;;;;;;;;2.75;1.00;;;;;10.11;48.33;101731.44;5018580;28;45479;-81
2023/10/16 01:42:54;;;;;;;;;3.75;2.00;;;;;10.34;48.55;101780.78;5017339;28;45465;-75
2023/10/16 01:45:23;;;;;;;;;4.75;2.00;;;;;10.23;48.51;101751.75;5016733;28;46155;-78
2023/10/16 01:47:50;;;;;;;;;7.00;2.00;;;;;10.36;48.78;101776.47;5017146;28;45386;-81
2023/10/16 01:50:23;;;;;;;;;5.75;2.00;;;;;10.40;48.61;101775.69;5017515;28;45448;-71
2023/10/16 01:52:49;;;;;;;;;3.00;2.00;;;;;10.35;48.96;101775.59;5017866;28;45705;-81
2023/10/16 01:55:18;;;;;;;;;2.00;2.00;;;;;10.10;48.62;101749.72;5025893;28;45401;-79
2023/10/16 01:57:44;;;;;;;;;4.00;2.75;;;;;10.22;48.94;101754.34;5033811;28;45417;-78
2023/10/16 02:00:17;;;;;;;;;2.00;2.00;;;;;10.28;48.97;101760.63;5016235;28;45465;-78
2023/10/16 02:02:43;;;;;;;;;2.00;2.00;;;;;10.22;49.50;101755.22;5016818;28;45573;-75
2023/10/16 02:05:14;;;;;;;;;3.00;3.00;;;;;10.11;49.23;101744.53;5034358;28;46070;-80
2023/10/16 02:07:43;;;;;;;;;2.00;2.00;;;;;10.14;49.64;101736.75;5023207;28;45381;-80
2023/10/16 02:10:12;;;;;;;;;2.75;2.50;;;;;10.16;49.70;101750.75;5023951;28;45285;-78
2023/10/16 02:12:40;;;;;;;;;5.00;3.00;;;;;9.57;49.99;101645.75;5021859;28;45389;-79
2023/10/16 02:15:08;;;;;;;;;3.50;2.50;;;;;9.55;49.89;101626.53;5020718;28;45508;-80
2023/10/16 02:17:37;;;;;;;;;3.00;1.25;;;;;9.88;49.77;101685.63;5031024;28;45342;-81
2023/10/16 02:20:11;;;;;;;;;5.00;3.50;;;;;10.21;49.83;101737.75;5025161;28;46118;-80
2023/10/16 02:22:39;;;;;;;;;2.50;2.25;;;;;10.26;49.78;101738.72;5039305;28;45482;-80
2023/10/16 02:25:08;;;;;;;;;2.25;2.25;;;;;10.11;49.68;101710.50;5037570;28;46730;-80
2023/10/16 02:27:35;;;;;;;;;5.25;4.00;;;;;10.29;49.82;101735.31;5025049;28;45406;-79
2023/10/16 02:32:49;;;;;;;;;2.25;2.25;;;;;10.06;50.16;101701.69;5041905;28;45465;-77
2023/10/16 02:35:15;;;;;;;;;4.00;2.50;;;;;10.23;50.19;101716.81;5043495;28;45479;-77
2023/10/16 02:37:41;;;;;;;;;3.75;3.00;;;;;10.07;50.19;101706.06;5043919;28;45315;-79
2023/10/16 02:40:17;;;;;;;;;3.00;3.00;;;;;10.11;50.64;101720.97;5041804;28;45421;-77
2023/10/16 02:42:55;;;;;;;;;5.75;3.25;;;;;10.05;50.63;101720.84;5056278;28;45541;-80
2023/10/16 02:45:24;;;;;;;;;3.00;3.00;;;;;9.73;50.80;101676.59;5042030;28;46111;-72
2023/10/16 02:47:51;;;;;;;;;6.25;2.50;;;;;10.07;50.48;101727.00;5039127;28;45462;-78
2023/10/16 02:50:35;;;;;;;;;4.50;2.00;;;;;9.71;50.98;101670.47;5043493;28;45378;-80
2023/10/16 02:53:06;;;;;;;;;3.00;2.50;;;;;9.96;50.78;101697.09;5037483;28;45383;-79
2023/10/16 02:55:46;;;;;;;;;2.50;2.50;;;;;10.10;50.85;101727.06;5026085;28;45155;-75
2023/10/16 02:58:13;;;;;;;;;4.00;3.00;;;;;9.72;50.94;101655.63;5050678;28;45557;-81
2023/10/16 03:00:49;;;;;;;;;5.25;3.00;;;;;9.89;51.36;101701.31;5039357;28;45427;-80
2023/10/16 03:03:18;;;;;;;;;2.00;2.00;;;;;9.38;51.18;101618.34;5038378;28;45617;-79
2023/10/16 03:06:05;;;;;;;;;3.00;3.00;;;;;10.10;51.10;101716.59;5027700;28;45449;-72
2023/10/16 03:08:32;;;;;;;;;5.00;3.00;;;;;10.01;51.03;101712.91;5039056;28;45539;-80
2023/10/16 03:10:59;;;;;;;;;3.00;3.00;;;;;9.82;50.90;101668.03;5039692;28;45437;-81
2023/10/16 03:13:25;;;;;;;;;4.75;4.00;;;;;10.00;51.11;101706.78;5040044;28;45346;-80
2023/10/16 03:16:04;;;;;;;;;3.50;3.50;;;;;9.93;51.12;101690.06;5039155;28;46447;-80
2023/10/16 03:18:30;;;;;;;;;5.00;4.00;;;;;10.04;51.18;101718.22;5040429;28;45448;-80
2023/10/16 03:21:26;;;;;;;;;3.00;3.00;;;;;10.04;51.13;101710.38;5039598;28;45443;-78
2023/10/16 03:23:53;;;;;;;;;3.00;3.00;;;;;9.96;51.51;101715.44;5028805;28;45441;-78
2023/10/16 03:26:29;;;;;;;;;3.75;2.00;;;;;9.76;51.53;101683.63;5039217;28;45350;-80
2023/10/16 03:28:57;;;;;;;;;4.75;4.75;;;;;9.88;51.81;101703.94;5037573;28;45408;-79
2023/10/16 03:31:23;;;;;;;;;4.00;4.00;;;;;9.82;51.93;101693.31;5040575;28;45611;-79
2023/10/16 03:33:50;;;;;;;;;4.25;2.00;;;;;9.82;52.10;101709.91;5045383;28;45354;-80
2023/10/16 03:36:17;;;;;;;;;4.00;4.00;;;;;9.75;52.49;101702.78;5044392;28;46233;-77
2023/10/16 03:38:47;;;;;;;;;5.25;3.25;;;;;9.76;52.55;101710.66;5059062;28;45377;-80
2023/10/16 03:41:39;;;;;;;;;6.75;5.00;;;;;9.68;52.58;101695.66;5041096;28;45413;-80
2023/10/16 03:44:07;;;;;;;;;3.50;3.50;;;;;9.70;52.73;101705.28;5039473;28;45493;-79
2023/10/16 03:46:33;;;;;;;;;4.75;4.75;;;;;9.45;52.91;101671.66;5039864;28;46275;-79
2023/10/16 03:49:00;;;;;;;;;4.25;3.00;;;;;9.52;53.74;101697.09;5055064;28;45571;-77
2023/10/16 03:51:26;;;;;;;;;4.50;3.50;;;;;9.44;53.30;101689.03;5039320;28;45592;-80
2023/10/16 03:53:56;;;;;;;;;5.50;3.00;;;;;9.39;53.22;101666.28;5039013;28;45417;-78
2023/10/16 03:56:24;;;;;;;;;3.25;3.25;;;;;9.64;53.07;101705.19;5053310;28;47239;-75
2023/10/16 03:58:53;;;;;;;;;6.00;4.00;;;;;9.12;53.68;101617.78;5040005;28;45346;-80
2023/10/16 04:01:27;;;;;;;;;3.00;3.00;;;;;9.66;53.51;101703.50;5041434;28;45205;-74
2023/10/16 04:03:57;;;;;;;;;5.75;4.50;;;;;9.54;53.74;101677.09;5042741;28;45280;-76
2023/10/16 04:06:24;;;;;;;;;3.00;3.00;;;;;9.36;53.54;101668.84;5038480;28;45305;-68
2023/10/16 04:08:53;;;;;;;;;5.25;4.25;;;;;9.60;53.40;101700.72;5039395;28;45545;-69
2023/10/16 04:11:24;;;;;;;;;4.75;4.00;;;;;9.59;53.05;101703.34;5053972;28;45489;-68
2023/10/16 04:13:50;;;;;;;;;5.00;3.75;;;;;9.65;53.59;101712.16;5038604;28;45646;-70
2023/10/16 04:16:30;;;;;;;;;7.50;4.00;;;;;9.64;53.85;101706.94;5037512;28;46244;-72
2023/10/16 04:21:57;;;;;;;;;5.25;3.75;;;;;9.43;53.95;101692.53;5028150;28;45373;-72
2023/10/16 04:32:29;;;;;;;;;5.00;3.75;;;;;9.47;53.98;101672.56;5039422;28;45400;-73
2023/10/16 04:34:57;;;;;;;;;3.50;3.50;;;;;9.73;53.62;101700.16;5038346;28;45670;-74
2023/10/16 04:37:40;;;;;;;;;4.25;3.25;;;;;9.71;53.68;101701.84;5037663;28;45684;-71
2023/10/16 04:43:07;;;;;;;;;4.50;4.00;;;;;9.72;53.66;101690.53;5039354;28;45229;-78
2023/10/16 04:45:59;;;;;;;;;4.75;4.75;;;;;9.67;53.74;101686.06;5035800;28;45578;-77
2023/10/16 04:48:47;;;;;;;;;4.50;3.00;;;;;9.51;54.46;101671.75;5036859;28;45484;-68
2023/10/16 04:51:15;;;;;;;;;3.25;3.25;;;;;9.54;54.20;101675.34;5036855;28;45461;-66
2023/10/16 04:53:58;;;;;;;;;3.25;3.25;;;;;9.15;53.98;101610.00;5036472;28;46108;-72
2023/10/16 05:02:16;;;;;;;;;3.50;3.25;;;;;9.49;54.75;101653.44;5013473;28;45345;-69
2023/10/16 05:05:32;;;;;;;;;4.00;3.50;;;;;9.45;54.97;101655.97;5053936;28;45480;-72
2023/10/16 05:07:49;;;;;;;;;5.00;3.50;;;;;8.99;55.05;101587.84;5024154;28;45350;-77
2023/10/16 05:13:39;;;;;;;;;7.75;5.00;;;;;9.48;60.73;101656.88;5038944;28;45261;-75
2023/10/16 06:14:34;;;;;;;;;4.50;3.25;;;;;9.21;54.72;101653.69;5022703;28;46686;-74
2023/10/16 06:17:24;;;;;;;;;4.00;4.00;;;;;9.01;54.94;101635.81;5021253;28;45448;-79
2023/10/16 06:19:51;;;;;;;;;6.50;5.00;;;;;9.12;55.08;101656.97;5023447;28;45587;-77
2023/10/16 06:22:17;;;;;;;;;7.25;5.50;;;;;9.10;55.47;101648.22;5024439;28;45562;-73
2023/10/16 06:24:49;;;;;;;;;4.75;3.00;;;;;8.84;55.35;101609.31;5036730;28;45500;-78
2023/10/16 06:27:24;;;;;;;;;9.00;5.25;;;;;8.69;55.38;101583.72;5028708;28;45419;-76
2023/10/16 06:29:50;;;;;;;;;8.25;3.75;;;;;9.10;55.13;101648.22;5034747;28;45308;-77
2023/10/16 06:32:35;;;;;;;;;4.00;3.50;;;;;9.20;55.62;101655.41;5029747;28;45507;-74
2023/10/16 06:35:07;;;;;;;;;5.75;4.50;;;;;9.26;54.96;101652.06;5035111;28;45522;-79
2023/10/16 06:37:51;;;;;;;;;4.75;3.25;;;;;9.15;54.79;101619.56;5034798;28;45405;-71
2023/10/16 06:40:24;;;;;;;;;3.00;3.00;;;;;9.26;54.67;101636.38;5033084;28;45401;-70
2023/10/16 06:42:54;;;;;;;;;4.00;3.00;;;;;9.27;54.89;101653.81;5037500;28;45484;-76
2023/10/16 06:45:22;;;;;;;;;3.25;3.25;;;;;9.21;54.92;101636.28;5024057;28;46032;-70
2023/10/16 06:47:48;;;;;;;;;4.75;4.00;;;;;9.16;55.12;101647.47;5018406;28;46331;-75
2023/10/16 06:53:00;;;;;;;;;10.50;4.00;;;;;9.01;55.18;101606.19;5035905;28;45380;-77
2023/10/16 06:55:28;;;;;;;;;8.25;3.75;;;;;8.64;54.86;101553.13;5043916;28;45328;-78
2023/10/16 06:57:57;;;;;;;;;7.25;5.25;;;;;9.03;55.27;101623.66;5032302;28;45535;-78
2023/10/16 07:02:54;;;;;;;;;5.75;4.00;;;;;9.29;54.17;101621.63;5025477;28;45288;-79
2023/10/16 07:05:42;;;;;;;;;2.50;2.50;;;;;9.47;54.18;101646.41;5031823;28;45489;-78
2023/10/16 07:08:10;;;;;;;;;6.75;2.50;;;;;9.45;53.94;101630.69;5027725;28;45591;-80
2023/10/16 07:11:03;;;;;;;;;6.25;4.00;;;;;9.19;53.61;101582.22;5029219;28;45429;-77
2023/10/16 07:13:38;;;;;;;;;5.00;4.00;;;;;9.32;53.63;101605.13;5034634;28;45820;-78
2023/10/16 07:16:07;;;;;;;;;5.00;4.00;;;;;9.60;53.66;101642.31;5023317;28;45373;-73
2023/10/16 07:18:42;;;;;;;;;5.75;4.50;;;;;9.61;53.54;101641.44;5019235;28;46055;-79
2023/10/16 07:21:09;;;;;;;;;5.50;5.00;;;;;9.53;53.78;101625.59;5022577;28;45525;-75
2023/10/16 07:23:39;;;;;;;;;5.75;4.75;;;;;9.39;53.72;101598.28;5018213;28;45466;-74
2023/10/16 07:26:24;;;;;;;;;6.25;4.00;;;;;9.56;53.52;101623.03;5034993;28;45762;-74
2023/10/16 07:28:50;;;;;;;;;3.50;3.50;;;;;9.58;53.32;101631.81;5035592;28;45491;-77
2023/10/16 07:31:16;;;;;;;;;6.00;4.00;;;;;9.64;53.54;101642.41;5025812;28;45434;-77
2023/10/16 07:33:50;;;;;;;;;3.25;3.25;;;;;9.75;53.49;101643.50;5020854;28;45738;-78
2023/10/16 07:36:17;;;;;;;;;6.25;5.00;;;;;9.83;53.42;101642.78;5021794;28;45452;-76
2023/10/16 07:38:44;;;;;;;;;4.00;4.00;;;;;9.64;53.22;101625.84;5022891;28;45692;-77
2023/10/16 07:41:13;;;;;;;;;6.50;5.50;;;;;9.71;53.54;101653.88;5042789;28;45736;-78
2023/10/16 07:43:39;;;;;;;;;4.50;3.75;;;;;9.75;53.23;101648.75;5026457;28;45395;-75
2023/10/16 07:48:44;;;;;;;;;4.25;4.00;;;;;9.88;53.11;101649.84;5023740;28;45573;-74
2023/10/16 07:51:15;;;;;;;;;7.25;5.00;;;;;9.95;52.60;101659.59;5020625;28;45374;-79
2023/10/16 07:53:41;;;;;;;;;9.50;5.25;;;;;9.91;53.11;101642.06;5025279;28;45188;-79
2023/10/16 07:56:29;;;;;;;;;4.50;4.50;;;;;9.89;53.02;101649.00;5027866;28;45531;-76
2023/10/16 07:59:08;;;;;;;;;4.50;4.50;;;;;10.08;53.21;101655.47;5033744;28;46056;-75
2023/10/16 08:01:42;;;;;;;;;7.00;4.00;;;;;10.22;52.51;101654.84;5035181;28;45401;-78
2023/10/16 08:04:19;;;;;;;;;5.25;4.50;;;;;10.14;52.52;101633.78;5034713;28;45450;-78
2023/10/16 08:06:52;;;;;;;;;6.25;4.25;;;;;10.35;51.80;101644.66;5028502;28;45542;-77
2023/10/16 08:11:58;;;;;;;;;7.50;4.00;;;;;10.62;51.61;101648.59;5029430;28;45419;-80
2023/10/16 08:14:32;;;;;;;;;4.75;3.75;;;;;10.49;51.40;101609.97;5051667;28;45486;-78
2023/10/16 08:17:03;;;;;;;;;4.00;4.00;;;;;10.53;51.19;101622.25;5028412;28;45350;-78
2023/10/16 08:19:34;;;;;;;;;4.50;4.00;;;;;10.52;51.30;101620.50;5032343;28;45530;-78
2023/10/16 08:22:02;;;;;;;;;6.75;5.75;;;;;10.55;51.90;101634.50;5021115;28;45330;-73
2023/10/16 08:24:29;;;;;;;;;5.75;3.25;;;;;10.68;51.70;101619.88;5024130;28;45479;-74
2023/10/16 08:27:08;;;;;;;;;6.25;5.50;;;;;10.84;51.35;101634.06;5027418;28;45460;-74
2023/10/16 08:29:37;;;;;;;;;5.50;5.00;;;;;10.86;50.69;101624.50;5023854;28;46144;-71
2023/10/16 08:34:47;;;;;;;;;5.25;5.25;;;;;10.87;50.99;101626.28;5023188;28;45352;-72
2023/10/16 08:37:13;;;;;;;;;8.50;5.25;;;;;10.81;51.08;101620.94;5027295;28;45484;-72
2023/10/16 08:39:47;;;;;;;;;7.25;5.00;;;;;10.77;51.23;101627.88;5032275;28;45993;-72
2023/10/16 08:42:19;;;;;;;;;6.00;5.00;;;;;10.70;51.42;101605.06;5024552;28;45587;-72
2023/10/16 08:44:51;;;;;;;;;9.50;6.25;;;;;10.70;51.21;101622.50;5026654;28;45533;-73
2023/10/16 08:47:24;;;;;;;;;4.50;4.50;;;;;10.68;51.39;101635.59;5024727;28;46158;-72
2023/10/16 08:49:59;;;;;;;;;6.00;6.00;;;;;10.48;52.22;101632.63;5019051;28;45385;-73
2023/10/16 08:52:34;;;;;;;;;8.50;5.75;;;;;10.36;51.94;101609.75;5020268;28;45597;-73
2023/10/16 08:55:00;;;;;;;;;4.50;4.50;;;;;10.46;52.12;101610.78;5032258;28;45418;-74
2023/10/16 08:57:26;;;;;;;;;5.50;5.25;;;;;10.51;52.33;101605.63;5051024;28;45510;-73
2023/10/16 08:59:52;;;;;;;;;6.50;6.00;;;;;10.38;52.04;101563.50;5030012;28;45480;-73
2023/10/16 09:02:24;;;;;;;;;9.00;5.75;;;;;10.63;52.25;101602.31;5032972;28;45350;-73
2023/10/16 09:04:52;;;;;;;;;6.25;4.50;;;;;10.76;51.67;101591.16;5033998;28;45457;-75
2023/10/16 09:07:19;;;;;;;;;5.00;5.00;;;;;10.86;51.15;101595.69;5036119;28;45488;-75
2023/10/16 09:09:53;;;;;;;;;7.75;4.00;;;;;10.81;51.59;101586.88;5031927;28;45789;-75
2023/10/16 09:12:37;;;;;;;;;5.00;5.00;;;;;10.59;51.44;101552.50;5033752;28;45675;-75
2023/10/16 09:15:07;;;;;;;;;5.75;5.75;;;;;10.84;51.67;101586.91;5029004;28;45744;-74
2023/10/16 09:17:35;;;;;;;;;6.75;5.75;;;;;10.84;51.39;101586.91;5034556;28;45404;-72
2023/10/16 09:20:14;;;;;;;;;4.00;4.00;;;;;10.88;51.39;101586.09;5022518;28;47403;-74
2023/10/16 09:22:46;;;;;;;;;9.25;7.25;;;;;10.97;51.35;101590.59;5037563;28;45497;-73
2023/10/16 09:25:22;;;;;;;;;6.25;5.75;;;;;11.06;50.88;101587.22;5018671;28;45311;-74
2023/10/16 09:27:52;;;;;;;;;5.50;4.50;;;;;11.00;51.19;101578.41;5031849;28;45565;-75
2023/10/16 09:30:18;;;;;;;;;4.50;4.25;;;;;11.05;51.17;101575.84;5016453;28;45350;-72
2023/10/16 09:32:44;;;;;;;;;7.50;4.50;;;;;11.09;50.89;101535.72;5024815;28;45523;-72
2023/10/16 09:35:14;;;;;;;;;8.75;4.25;;;;;11.45;50.41;101586.84;5029720;28;45558;-74
2023/10/16 09:37:40;;;;;;;;;4.75;4.00;;;;;11.65;50.08;101580.09;5050349;28;45801;-75
2023/10/16 09:40:18;;;;;;;;;5.00;5.00;;;;;11.81;49.86;101567.13;5034616;28;45422;-74
2023/10/16 09:42:55;;;;;;;;;5.50;3.75;;;;;12.08;49.35;101558.69;5024707;28;45291;-72
2023/10/16 09:45:23;;;;;;;;;9.00;6.75;;;;;12.45;48.68;101556.34;5018442;28;45417;-74
2023/10/16 09:47:51;;;;;;;;;8.50;5.00;;;;;13.06;47.99;101546.19;5029139;28;45689;-74
2023/10/16 09:50:20;;;;;;;;;9.50;5.75;;;;;15.02;44.28;101545.53;5031842;28;46026;-73
2023/10/16 09:52:47;;;;;;;;;12.25;5.75;;;;;15.92;41.41;101521.28;5025792;28;45839;-73
2023/10/16 09:55:18;;;;;;;;;5.00;3.00;;;;;15.53;41.28;101552.34;5018261;28;45579;-74
2023/10/16 09:57:53;;;;;;;;;7.67;4.33;;;;;14.23;42.51;101472.72;5027588;28;45571;-73
2023/10/16 10:03:12;;;;;;;;;4.33;4.33;;;;;14.17;44.12;101535.97;5037500;28;45534;-74
2023/10/16 10:11:38;;;;;;;;;6.50;5.75;;;;;14.25;44.19;101533.31;5031766;28;46176;-73
2023/10/16 10:14:26;;;;;;;;;4.00;3.67;;;;;13.99;43.81;101537.69;5042911;28;45612;-73
2023/10/16 10:16:58;;;;;;;;;4.33;4.33;;;;;15.01;43.14;101513.84;5031056;28;45382;-73
2023/10/16 10:19:31;;;;;;;;;4.00;4.00;;;;;16.67;39.91;101484.44;5046635;28;45461;-74
2023/10/16 10:22:05;;;;;;;;;6.33;4.33;;;;;17.41;38.03;101467.66;5034327;28;45989;-74
2023/10/16 10:24:34;;;;;;;;;8.67;5.33;;;;;17.86;38.06;101506.75;5036016;28;45379;-72
2023/10/16 10:27:03;;;;;;;;;9.00;5.33;;;;;18.17;37.38;101493.84;5038730;28;45479;-73
2023/10/16 10:29:29;;;;;;;;;4.00;4.00;;;;;19.21;35.78;101485.66;5037488;28;45506;-76
2023/10/16 10:32:05;;;;;;;;;5.33;3.00;;;;;19.40;34.19;101486.97;5040854;28;45473;-73
2023/10/16 10:34:31;;;;;;;;;4.00;4.00;;;;;18.72;34.74;101460.09;5028705;28;45369;-72
2023/10/16 10:37:00;;;;;;;;;5.67;4.67;;;;;18.45;35.50;101459.75;5040364;28;45515;-72
2023/10/16 10:42:03;;;;;;;;;5.00;4.00;;;;;19.45;35.04;101455.88;5037969;28;45861;-68
2023/10/16 10:44:33;;;;;;;;;5.00;4.67;;;;;20.40;34.83;101441.09;5037523;28;45544;-70
2023/10/16 10:47:04;;;;;;;;;4.67;4.67;;;;;21.95;31.78;101457.72;5052210;28;45451;-71
2023/10/16 10:49:34;;;;;;;;;5.33;4.67;;;;;22.26;30.73;101432.66;5038580;28;45350;-70
2023/10/16 10:52:02;;;;;;;;;5.67;4.00;;;;;22.49;31.18;101453.19;5038039;28;46441;-72
2023/10/16 10:54:28;;;;;;;;;5.00;5.00;;;;;22.72;31.65;101441.69;5037118;28;45749;-71
2023/10/16 10:56:59;;;;;;;;;3.33;3.33;;;;;23.45;29.55;101441.50;5029471;28;45636;-70
2023/10/16 10:59:39;;;;;;;;;8.33;4.33;;;;;24.23;27.60;101441.84;5038579;28;45488;-69
2023/10/16 11:05:01;;;;;;;;;5.67;4.00;;;;;24.40;28.80;101439.28;5023673;28;45433;-68
2023/10/16 11:07:59;;;;;;;;;5.00;2.67;;;;;25.27;28.00;101439.78;5036836;28;45395;-70
2023/10/16 11:10:24;;;;;;;;;7.67;3.67;;;;;25.84;26.72;101430.69;5036193;28;45463;-70
2023/10/16 11:12:50;;;;;;;;;5.67;4.67;;;;;25.16;26.28;101410.75;5038365;28;45511;-68
2023/10/16 11:15:16;;;;;;;;;5.00;5.00;;;;;24.69;25.67;101357.63;5034604;28;45344;-69
2023/10/16 11:17:44;;;;;;;;;8.00;4.00;;;;;25.40;25.55;101418.59;5025093;28;45732;-70
2023/10/16 11:22:46;;;;;;;;;3.33;3.33;;;;;23.64;26.68;101398.84;5017913;28;45931;-70
2023/10/16 11:25:15;;;;;;;;;6.00;5.33;;;;;22.89;27.57;101398.28;5019115;28;45407;-73
2023/10/16 11:27:42;;;;;;;;;5.33;3.00;;;;;22.62;27.75;101401.09;5016388;28;45473;-70
2023/10/16 11:30:18;;;;;;;;;5.67;4.33;;;;;22.04;28.53;101377.38;5022393;28;45573;-69
2023/10/16 11:32:49;;;;;;;;;5.33;4.00;;;;;21.70;29.05;101359.88;5023071;28;46205;-69
2023/10/16 11:35:19;;;;;;;;;4.67;4.33;;;;;21.71;29.60;101393.66;5034289;28;45471;-67
2023/10/16 11:38:13;;;;;;;;;5.00;2.67;;;;;21.09;29.72;101394.72;5017905;28;45519;-69
2023/10/16 11:40:42;;;;;;;;;6.67;4.00;;;;;20.75;30.23;101376.25;5033362;28;46077;-69
2023/10/16 11:43:11;;;;;;;;;3.67;3.00;;;;;20.13;30.82;101367.34;5033396;28;46360;-68
2023/10/16 11:45:38;;;;;;;;;5.67;4.00;;;;;19.74;31.23;101361.31;5017659;28;45468;-68
2023/10/16 11:51:17;;;;;;;;;4.00;3.00;;;;;19.11;31.94;101338.94;5038308;28;45607;-69
2023/10/16 11:53:46;;;;;;;;;5.00;5.00;;;;;18.57;32.66;101265.84;5017229;28;46328;-70
2023/10/16 11:56:18;;;;;;;;;4.33;3.00;;;;;18.95;33.36;101353.50;5017513;28;45291;-68
2023/10/16 11:58:48;;;;;;;;;4.67;3.00;;;;;18.72;32.91;101336.28;5035958;28;45307;-68
2023/10/16 12:01:14;;;;;;;;;4.33;3.00;;;;;18.48;33.38;101337.66;5037712;28;45412;-67
2023/10/16 12:03:40;;;;;;;;;3.00;3.00;;;;;18.21;33.49;101333.81;5038686;28;45504;-69
2023/10/16 12:06:07;;;;;;;;;4.00;4.00;;;;;18.02;33.43;101333.31;5038881;28;45579;-72
2023/10/16 12:08:33;;;;;;;;;2.33;2.33;;;;;17.56;32.94;101297.91;5037581;28;45431;-70
2023/10/16 12:11:01;;;;;;;;;1.33;1.33;;;;;17.54;33.01;101301.50;5033931;28;45441;-70
2023/10/16 12:13:27;;;;;;;;;2.00;1.33;;;;;17.56;34.22;101311.16;5032538;28;46532;-69
2023/10/16 12:15:53;;;;;;;;;1.00;1.00;;;;;17.55;33.52;101292.63;5035534;28;45457;-69
2023/10/16 12:18:21;;;;;;;;;3.67;2.00;;;;;17.64;33.17;101303.06;5037521;28;45502;-72
2023/10/16 12:20:47;;;;;;;;;4.00;2.33;;;;;17.63;33.64;101287.19;5037463;28;45177;-69
2023/10/16 12:23:12;;;;;;;;;3.00;1.33;;;;;17.47;33.54;101289.25;5036310;28;45367;-71
2023/10/16 12:25:39;;;;;;;;;3.00;1.33;;;;;17.23;33.69;101296.72;5036468;28;45574;-70
2023/10/16 12:28:08;;;;;;;;;3.33;2.33;;;;;17.03;33.89;101304.97;5054948;28;45387;-70
2023/10/16 12:30:36;;;;;;;;;1.67;1.67;;;;;16.91;34.13;101290.16;5038596;28;45479;-71
2023/10/16 12:33:09;;;;;;;;;2.33;1.00;;;;;16.73;33.40;101288.66;5038045;28;45573;-71
2023/10/16 12:35:35;;;;;;;;;1.67;1.67;;;;;16.79;33.51;101308.00;5037206;28;45447;-71
2023/10/16 12:38:04;;;;;;;;;1.67;1.00;;;;;16.79;33.31;101286.84;5036959;28;45377;-69
2023/10/16 12:40:34;;;;;;;;;1.67;1.33;;;;;16.88;33.27;101299.94;5050863;28;45358;-69
2023/10/16 12:43:00;;;;;;;;;1.67;1.00;;;;;16.77;33.54;101283.31;5030872;28;45499;-68
2023/10/16 12:45:27;;;;;;;;;1.00;1.00;;;;;16.68;33.72;101273.72;5035324;28;45494;-68
2023/10/16 12:47:54;;;;;;;;;1.00;1.00;;;;;16.74;34.36;101276.28;5036770;28;45350;-65
2023/10/16 12:50:25;;;;;;;;;2.00;2.00;;;;;16.85;33.67;101271.75;5038318;28;45456;-64
2023/10/16 12:53:03;;;;;;;;;2.00;0.33;;;;;17.02;33.92;101276.78;5035021;28;45805;-65
2023/10/16 12:55:28;;;;;;;;;0.33;0.33;;;;;17.16;33.98;101271.25;5033952;28;45615;-65
2023/10/16 12:57:54;;;;;;;;;2.00;1.00;;;;;17.11;32.94;101275.75;5027929;28;45473;-65
2023/10/16 13:00:22;;;;;;;;;1.00;1.00;;;;;17.09;33.05;101267.84;5037186;28;45472;-65
2023/10/16 13:02:50;;;;;;;;;1.33;1.00;;;;;16.95;33.50;101265.41;5036252;28;45521;-64
2023/10/16 13:05:17;;;;;;;;;1.67;1.00;;;;;16.82;32.71;101240.03;5037880;28;45291;-64
2023/10/16 13:07:44;;;;;;;;;1.00;1.00;;;;;16.66;32.60;101233.22;5037351;28;45540;-66
2023/10/16 13:10:14;;;;;;;;;0.00;0.00;;;;;16.51;33.00;101221.97;5037890;28;45499;-65
2023/10/16 13:12:44;;;;;;;;;1.00;1.00;;;;;16.51;33.14;101243.13;5037489;28;47202;-64
2023/10/16 13:15:14;;;;;;;;;3.00;2.00;;;;;16.34;33.79;101234.56;5036472;28;46063;-62
2023/10/16 13:17:40;;;;;;;;;1.67;1.67;;;;;16.21;34.54;101247.06;5031324;28;45315;-64
2023/10/16 13:20:27;;;;;;;;;2.00;2.00;;;;;16.23;34.64;101247.94;5036705;28;45517;-65
2023/10/16 13:22:52;;;;;;;;;1.00;1.00;;;;;16.22;34.81;101245.28;5024228;28;45460;-66
2023/10/16 13:25:30;;;;;;;;;1.00;1.00;;;;;16.11;35.47;101240.13;5036022;28;45473;-65
2023/10/16 13:27:58;;;;;;;;;1.00;1.00;;;;;16.05;35.82;101232.31;5035954;28;45457;-65
2023/10/16 13:30:31;;;;;;;;;1.00;1.00;;;;;15.95;37.70;101204.25;5051738;28;45364;-66
2023/10/16 13:33:00;;;;;;;;;6.33;1.00;;;;;15.83;35.53;101166.53;5031164;28;47186;-66
2023/10/16 13:35:26;;;;;;;;;1.00;1.00;;;;;16.11;35.46;101234.84;5034774;28;45366;-65
2023/10/16 13:37:52;;;;;;;;;3.00;1.33;;;;;16.05;35.72;101227.03;5034020;28;45451;-65
2023/10/16 13:40:24;;;;;;;;;2.00;2.00;;;;;15.94;35.81;101216.56;5033760;28;45394;-66
2023/10/16 13:42:55;;;;;;;;;3.33;1.67;;;;;15.89;35.87;101223.69;5035510;28;46103;-66